Time;durP1;ratioP1;P1;durP2;ratioP2;P2;SDS_P1;SDS_P2;PMS_P1;PMS_P2;Temp;Humidity;BMP_temperature;BMP_pressure;BME280_temperature;BME280_humidity;BME280_pressure;Samples;Min_cycle;Max_cycle;Signal;HPM_P1;HPM_P2
2022/07/26 00:01:47;;;;;;;0.98;0.50;;;;;;;16.59;61.78;101436.69;7401341;19;20011;-50
2022/07/26 00:04:15;;;;;;;3.35;0.47;;;;;;;16.57;61.84;101439.03;7402683;19;20002;-51
2022/07/26 00:06:42;;;;;;;3.83;0.88;;;;;;;16.50;61.89;101438.84;7396268;19;20011;-47
2022/07/26 00:09:10;;;;;;;3.75;0.57;;;;;;;16.41;62.25;101437.06;7391418;19;20081;-49
2022/07/26 00:11:38;;;;;;;1.30;0.65;;;;;;;16.41;62.26;101444.69;7389582;19;20007;-49
2022/07/26 00:14:07;;;;;;;2.72;0.50;;;;;;;16.45;62.29;101431.56;7380401;19;20026;-52
2022/07/26 00:16:35;;;;;;;2.10;0.77;;;;;;;16.42;62.36;101426.72;7372909;19;20023;-53
2022/07/26 00:19:04;;;;;;;3.78;1.13;;;;;;;16.41;62.30;101425.91;7380258;19;20043;-52
2022/07/26 00:21:35;;;;;;;8.63;3.78;;;;;;;16.42;61.92;101432.31;7397433;19;20510;-53
2022/07/26 00:24:07;;;;;;;6.60;2.60;;;;;;;16.38;62.40;101426.66;7397468;19;20022;-49
2022/07/26 00:26:35;;;;;;;5.63;2.33;;;;;;;16.42;62.26;101423.91;7400195;19;20018;-52
2022/07/26 00:29:04;;;;;;;3.92;0.90;;;;;;;16.43;61.77;101431.13;7397474;19;20041;-52
2022/07/26 00:31:32;;;;;;;2.35;0.75;;;;;;;16.44;61.93;101432.75;7397553;19;20013;-49
2022/07/26 00:34:36;;;;;;;1.83;0.50;;;;;;;16.36;61.97;101436.59;7398526;19;20357;-50
2022/07/26 00:51:05;;;;;;;2.13;0.20;;;;;;;16.18;61.10;101452.94;7392724;19;20019;-48
2022/07/26 00:53:32;;;;;;;2.45;0.30;;;;;;;16.20;61.29;101445.00;7399687;19;20018;-49
2022/07/26 00:56:00;;;;;;;1.65;0.38;;;;;;;16.15;60.86;101459.28;7399624;19;20011;-50
2022/07/26 00:58:27;;;;;;;3.03;0.35;;;;;;;16.15;60.78;101453.69;7396498;19;20486;-48
2022/07/26 01:00:55;;;;;;;2.05;0.13;;;;;;;16.11;60.61;101458.41;7394410;19;20007;-47
2022/07/26 01:03:23;;;;;;;3.05;0.52;;;;;;;16.00;60.60;101456.53;7398660;19;20043;-47
2022/07/26 01:05:56;;;;;;;2.05;0.22;;;;;;;15.98;60.58;101459.69;7395176;19;20011;-49
2022/07/26 01:08:24;;;;;;;3.75;1.23;;;;;;;16.03;60.60;101466.97;7397344;19;20051;-51
2022/07/26 01:10:52;;;;;;;1.95;0.30;;;;;;;16.07;60.89;101468.66;7396885;19;20102;-47
2022/07/26 01:13:20;;;;;;;4.80;1.83;;;;;;;16.05;60.70;101459.03;7396983;19;20014;-47
2022/07/26 01:15:48;;;;;;;0.88;0.57;;;;;;;16.03;61.32;101456.63;7396371;19;20398;-49
2022/07/26 01:18:16;;;;;;;2.70;0.60;;;;;;;16.05;61.35;101454.25;7394570;19;20015;-48
2022/07/26 01:20:44;;;;;;;2.53;0.32;;;;;;;16.05;61.32;101465.44;7395783;19;20048;-47
2022/07/26 01:23:12;;;;;;;2.72;0.32;;;;;;;16.00;61.72;101454.56;7399101;19;20066;-48
2022/07/26 01:25:39;;;;;;;1.40;0.43;;;;;;;16.03;61.60;101465.00;7394926;19;20471;-51
2022/07/26 01:28:14;;;;;;;2.38;0.60;;;;;;;16.02;61.95;101465.38;7399603;19;20112;-48
2022/07/26 01:31:06;;;;;;;;;;;;;;;15.89;62.01;101461.88;7394584;19;20030;-51
2022/07/26 01:33:54;;;;;;;1.88;0.40;;;;;;;15.89;61.75;101456.28;7399183;19;20328;-48
2022/07/26 01:36:42;;;;;;;1.00;0.52;;;;;;;15.87;61.81;101461.44;7398094;19;20031;-51
2022/07/26 01:39:30;;;;;;;2.47;0.40;;;;;;;15.87;62.12;101469.81;7394150;19;20029;-51
2022/07/26 01:42:18;;;;;;;0.63;0.30;;;;;;;15.85;62.31;101472.16;7397241;19;20078;-49
2022/07/26 01:45:10;;;;;;;2.95;0.22;;;;;;;15.87;62.25;101471.78;7398910;19;20013;-51
2022/07/26 01:47:58;;;;;;;2.67;0.60;;;;;;;15.88;62.16;101471.44;7398444;19;20007;-49
2022/07/26 01:50:46;;;;;;;2.28;0.40;;;;;;;15.85;62.23;101477.75;7391773;19;20079;-52
2022/07/26 01:53:34;;;;;;;2.63;0.30;;;;;;;15.83;62.42;101478.09;7395764;19;20015;-47
2022/07/26 01:56:22;;;;;;;1.40;0.32;;;;;;;15.79;62.03;101480.00;7396915;19;20348;-48
2022/07/26 01:59:09;;;;;;;1.30;0.38;;;;;;;15.76;62.30;101475.13;7394738;19;20007;-49
2022/07/26 02:01:57;;;;;;;2.63;0.45;;;;;;;15.72;62.52;101473.44;7393804;19;20010;-48
2022/07/26 02:04:57;;;;;;;3.20;0.40;;;;;;;15.69;62.53;101468.59;7394836;19;20018;-48
2022/07/26 02:07:45;;;;;;;2.55;0.38;;;;;;;15.67;62.25;101474.50;7397985;19;20006;-47
2022/07/26 02:13:40;;;;;;;4.05;1.05;;;;;;;15.62;62.32;101463.63;7398425;19;20021;-46
2022/07/26 02:16:28;;;;;;;1.35;0.45;;;;;;;15.63;62.40;101464.44;7393088;19;20007;-46
2022/07/26 02:19:16;;;;;;;2.70;0.47;;;;;;;15.57;62.68;101477.03;7395230;19;20015;-48
2022/07/26 02:22:04;;;;;;;3.03;0.40;;;;;;;15.58;62.82;101473.91;7398364;19;20011;-46
2022/07/26 02:24:53;;;;;;;2.13;0.43;;;;;;;15.63;62.53;101475.59;7394499;19;20028;-47
2022/07/26 02:27:40;;;;;;;0.45;0.30;;;;;;;15.60;63.05;101470.75;7393067;19;20010;-49
2022/07/26 02:30:08;;;;;;;1.92;0.45;;;;;;;15.53;62.65;101470.56;7381972;19;20047;-47
2022/07/26 02:32:41;;;;;;;1.93;0.40;;;;;;;15.53;63.11;101476.16;7390665;19;20090;-47
2022/07/26 02:35:09;;;;;;;2.08;0.40;;;;;;;15.57;63.21;101465.88;7387403;19;20496;-48
2022/07/26 02:37:39;;;;;;;0.43;0.30;;;;;;;15.59;63.18;101463.56;7386272;19;20003;-52
2022/07/26 02:40:11;;;;;;;0.95;0.40;;;;;;;15.57;62.85;101460.28;7390483;19;20014;-48
2022/07/26 02:42:45;;;;;;;2.65;0.50;;;;;;;15.58;63.14;101464.72;7402660;19;20033;-48
2022/07/26 02:45:12;;;;;;;4.78;0.90;;;;;;;15.60;63.23;101465.16;7397517;19;20014;-47
2022/07/26 02:47:48;;;;;;;2.25;0.50;;;;;;;15.57;63.26;101461.09;7398837;19;20504;-51
2022/07/26 02:50:38;;;;;;;3.83;0.68;;;;;;;15.58;63.34;101467.50;7398271;19;20476;-48
2022/07/26 02:57:32;;;;;;;2.78;0.40;;;;;;;15.52;63.01;101466.97;7399471;19;20030;-52
2022/07/26 03:00:33;;;;;;;0.60;0.35;;;;;;;15.52;63.41;101468.94;7401981;19;20501;-51
2022/07/26 03:03:21;;;;;;;3.25;0.50;;;;;;;15.53;63.16;101471.38;7402487;19;20010;-47
2022/07/26 03:06:08;;;;;;;2.92;0.30;;;;;;;15.45;63.50;101474.31;7404375;19;20006;-48
2022/07/26 03:08:56;;;;;;;2.75;1.00;;;;;;;15.40;63.82;101466.22;7402791;19;20002;-47
2022/07/26 03:11:44;;;;;;;0.82;0.32;;;;;;;15.37;63.89;101467.75;7401090;19;20476;-49
2022/07/26 03:14:32;;;;;;;1.10;0.40;;;;;;;15.36;63.91;101470.88;7403704;19;20010;-50
2022/07/26 03:17:19;;;;;;;2.15;0.30;;;;;;;15.36;64.23;101476.47;7395986;19;20011;-47
2022/07/26 03:19:47;;;;;;;0.90;0.47;;;;;;;15.36;64.13;101480.06;7400786;19;20015;-49
2022/07/26 03:22:14;;;;;;;1.95;0.30;;;;;;;15.36;64.17;101482.06;7398552;19;20483;-49
2022/07/26 03:24:42;;;;;;;0.35;0.20;;;;;;;15.32;64.42;101475.59;7401817;19;20018;-48
2022/07/26 03:27:09;;;;;;;4.22;0.43;;;;;;;15.31;64.40;101479.53;7400214;19;20014;-52
2022/07/26 03:29:37;;;;;;;1.30;0.30;;;;;;;15.35;64.27;101474.88;7400537;19;20341;-49
2022/07/26 03:32:05;;;;;;;2.40;0.38;;;;;;;15.37;64.70;101475.31;7400981;19;20017;-52
2022/07/26 03:34:32;;;;;;;2.50;0.52;;;;;;;15.33;64.47;101472.41;7399613;19;20003;-49
2022/07/26 03:37:00;;;;;;;3.80;0.50;;;;;;;15.29;64.61;101465.97;7398070;19;20014;-50
2022/07/26 03:39:27;;;;;;;1.90;0.40;;;;;;;15.26;64.62;101472.25;7400738;19;20495;-52
2022/07/26 03:41:55;;;;;;;0.90;0.45;;;;;;;15.29;64.97;101470.72;7398613;19;20018;-50
2022/07/26 03:44:22;;;;;;;1.55;0.57;;;;;;;15.26;64.73;101472.25;7400018;19;20014;-50
2022/07/26 03:46:50;;;;;;;2.05;0.40;;;;;;;15.25;65.00;101473.41;7399213;19;20043;-49
2022/07/26 03:49:17;;;;;;;2.55;0.50;;;;;;;15.23;65.04;101473.78;7400403;19;20011;-50
2022/07/26 03:51:45;;;;;;;3.78;0.70;;;;;;;15.18;64.91;101478.81;7399335;19;20037;-47
2022/07/26 03:54:12;;;;;;;0.82;0.47;;;;;;;15.17;64.90;101472.41;7402110;19;20015;-48
2022/07/26 03:56:40;;;;;;;0.43;0.25;;;;;;;15.16;64.99;101479.19;7401560;19;20025;-49
2022/07/26 03:59:09;;;;;;;2.28;0.30;;;;;;;15.12;64.96;101472.69;7398957;19;20039;-47
2022/07/26 04:01:40;;;;;;;2.78;0.50;;;;;;;15.09;65.39;101473.41;7394367;19;20014;-47
2022/07/26 04:04:09;;;;;;;3.22;0.50;;;;;;;15.06;65.30;101487.25;7399355;19;20018;-48
2022/07/26 04:06:38;;;;;;;1.38;0.47;;;;;;;15.07;65.30;101478.53;7397828;19;20483;-48
2022/07/26 04:09:06;;;;;;;2.88;0.60;;;;;;;15.07;65.41;101478.53;7400110;19;20022;-50
2022/07/26 04:11:34;;;;;;;3.05;0.75;;;;;;;15.09;65.34;101476.19;7398842;19;20010;-47
2022/07/26 04:14:02;;;;;;;2.10;0.70;;;;;;;15.10;65.19;101471.41;7401480;19;20082;-49
2022/07/26 04:16:29;;;;;;;2.97;0.47;;;;;;;15.13;65.17;101468.75;7397949;19;20043;-48
2022/07/26 04:18:57;;;;;;;2.33;0.40;;;;;;;15.13;65.32;101474.31;7396770;19;20018;-49
2022/07/26 04:21:25;;;;;;;2.45;0.50;;;;;;;15.11;65.19;101482.25;7398299;19;20014;-49
2022/07/26 04:23:52;;;;;;;1.10;0.50;;;;;;;15.12;65.53;101489.41;7399162;19;20019;-47
2022/07/26 04:26:20;;;;;;;3.95;0.60;;;;;;;15.13;65.53;101501.41;7399338;19;20015;-52
2022/07/26 04:28:48;;;;;;;4.10;0.50;;;;;;;15.10;65.36;101497.34;7397883;19;20006;-50
2022/07/26 04:31:16;;;;;;;2.97;0.38;;;;;;;15.06;65.53;101502.00;7394572;19;20359;-49
2022/07/26 04:33:43;;;;;;;3.15;0.40;;;;;;;15.05;65.66;101505.97;7396846;19;20476;-50
2022/07/26 04:36:11;;;;;;;1.75;0.55;;;;;;;15.06;65.94;101504.78;7399931;19;20018;-49
2022/07/26 04:38:39;;;;;;;0.93;0.32;;;;;;;15.07;65.80;101491.66;7401903;19;20025;-46
2022/07/26 04:41:06;;;;;;;1.90;0.35;;;;;;;15.02;65.63;101495.53;7398881;19;20011;-47
2022/07/26 04:43:35;;;;;;;1.75;0.40;;;;;;;14.98;66.02;101496.59;7397558;19;20021;-47
2022/07/26 04:46:02;;;;;;;3.00;0.70;;;;;;;14.98;66.00;101497.41;7396742;19;20360;-46
2022/07/26 04:48:30;;;;;;;0.68;0.30;;;;;;;14.99;65.77;101501.00;7399769;19;20500;-47
2022/07/26 04:50:59;;;;;;;1.23;0.32;;;;;;;14.96;65.58;101508.09;7389451;19;20325;-49
2022/07/26 04:53:26;;;;;;;2.83;0.77;;;;;;;14.95;65.93;101503.72;7378885;19;20483;-51
2022/07/26 04:55:54;;;;;;;1.83;0.63;;;;;;;14.87;65.57;101501.06;7379864;19;20011;-49
2022/07/26 04:58:21;;;;;;;4.47;1.00;;;;;;;14.81;65.84;101503.31;7384090;19;20013;-48
2022/07/26 05:00:49;;;;;;;1.60;0.32;;;;;;;14.79;65.83;101511.22;7384299;19;20017;-51
2022/07/26 05:03:37;;;;;;;1.23;0.43;;;;;;;14.73;65.88;101509.84;7396329;19;20017;-49
2022/07/26 05:06:06;;;;;;;4.45;0.65;;;;;;;14.73;65.76;101509.84;7393080;19;20745;-47
2022/07/26 05:08:33;;;;;;;1.42;0.47;;;;;;;14.77;65.78;101524.72;7400752;19;20344;-47
2022/07/26 05:11:02;;;;;;;2.88;0.60;;;;;;;14.73;65.78;101511.81;7393689;19;20019;-48
2022/07/26 05:13:30;;;;;;;2.08;0.50;;;;;;;14.69;65.82;101519.28;7394832;19;20018;-48
2022/07/26 05:15:59;;;;;;;7.60;1.98;;;;;;;14.62;66.07;101523.47;7394154;19;20018;-48
2022/07/26 05:18:29;;;;;;;3.22;0.52;;;;;;;14.67;66.17;101508.47;7394191;19;20018;-49
2022/07/26 05:24:57;;;;;;;2.10;0.60;;;;;;;14.71;65.91;101514.97;7396941;19;20007;-48
2022/07/26 05:35:42;;;;;;;0.70;0.32;;;;;;;14.72;65.42;101519.34;7396644;19;20015;-49
2022/07/26 05:38:30;;;;;;;1.65;0.40;;;;;;;14.66;65.63;101523.56;7400612;19;20356;-50
2022/07/26 05:41:17;;;;;;;1.17;0.40;;;;;;;14.72;65.59;101522.16;7396405;19;20022;-50
2022/07/26 05:44:05;;;;;;;5.53;1.08;;;;;;;14.74;65.36;101522.63;7398442;19;20006;-49
2022/07/26 05:46:54;;;;;;;4.53;0.50;;;;;;;14.80;65.83;101532.34;7393901;19;20025;-50
2022/07/26 05:49:41;;;;;;;1.10;0.40;;;;;;;14.82;65.84;101530.03;7395791;19;20360;-52
2022/07/26 05:52:29;;;;;;;1.85;0.75;;;;;;;14.83;65.35;101530.81;7393714;19;20007;-48
2022/07/26 05:55:17;;;;;;;2.97;0.55;;;;;;;14.87;65.70;101532.56;7393953;19;20033;-48
2022/07/26 06:02:10;;;;;;;1.63;1.02;;;;;;;14.91;65.48;101533.44;7393854;19;20038;-49
2022/07/26 06:04:58;;;;;;;3.90;0.68;;;;;;;14.97;65.50;101543.19;7399214;19;20501;-50
2022/07/26 06:11:37;;;;;;;2.42;0.70;;;;;;;14.99;65.42;101540.84;7403617;19;20018;-48
2022/07/26 06:14:25;;;;;;;3.17;0.60;;;;;;;15.00;65.37;101536.91;7404862;19;20007;-47
2022/07/26 06:17:12;;;;;;;3.15;0.60;;;;;;;15.01;65.24;101543.31;7403719;19;20464;-49
2022/07/26 06:20:00;;;;;;;4.80;0.73;;;;;;;14.99;65.14;101543.66;7399900;19;20014;-48
2022/07/26 06:26:34;;;;;;;1.20;0.50;;;;;;;15.07;65.03;101542.69;7402742;19;20463;-51
2022/07/26 06:29:02;;;;;;;2.67;0.43;;;;;;;15.11;65.16;101545.56;7405814;19;20005;-48
2022/07/26 06:31:30;;;;;;;4.20;0.73;;;;;;;15.17;65.14;101552.50;7402874;19;20022;-50
2022/07/26 06:41:40;;;;;;;1.67;0.45;;;;;;;15.36;64.86;101563.78;7403649;19;20025;-47
2022/07/26 06:44:28;;;;;;;4.75;0.60;;;;;;;15.41;64.55;101574.69;7397253;19;20006;-49
2022/07/26 06:50:57;;;;;;;1.50;0.60;;;;;;;15.35;64.72;101572.53;7398552;19;20010;-47
2022/07/26 07:07:35;;;;;;;2.35;0.70;;;;;;;15.40;64.51;101594.59;7401733;19;20003;-50
2022/07/26 07:10:23;;;;;;;1.42;0.68;;;;;;;15.48;64.17;101596.44;7401145;19;20014;-49
2022/07/26 07:13:11;;;;;;;4.72;0.82;;;;;;;15.50;64.41;101599.66;7385860;19;20407;-47
2022/07/26 07:15:38;;;;;;;2.40;0.68;;;;;;;15.52;64.08;101606.50;7388275;19;20471;-49
2022/07/26 07:18:06;;;;;;;2.28;0.52;;;;;;;15.52;64.28;101609.31;7385211;19;20015;-49
2022/07/26 07:20:34;;;;;;;1.45;0.70;;;;;;;15.57;64.07;101611.84;7381476;19;20010;-50
2022/07/26 07:23:01;;;;;;;1.38;0.80;;;;;;;15.72;63.83;101610.25;7396008;19;20010;-49
2022/07/26 07:25:29;;;;;;;0.65;0.40;;;;;;;15.86;63.63;101618.19;7401037;19;20025;-50
2022/07/26 07:27:58;;;;;;;5.55;1.05;;;;;;;15.99;63.79;101611.34;7400774;19;20043;-51
2022/07/26 07:30:26;;;;;;;3.35;0.60;;;;;;;16.05;63.55;101607.91;7400030;19;20018;-49
2022/07/26 07:33:15;;;;;;;4.28;0.65;;;;;;;16.12;63.33;101612.84;7365767;19;20567;-53
2022/07/26 07:36:10;;;;;;;2.95;0.75;;;;;;;16.27;63.02;101610.03;7351771;19;20022;-53
2022/07/26 07:38:58;;;;;;;2.65;1.05;;;;;;;16.42;62.81;101619.56;7352182;19;20099;-52
2022/07/26 07:41:52;;;;;;;5.30;0.68;;;;;;;16.49;62.50;101613.34;7351397;19;20014;-53
2022/07/26 07:44:40;;;;;;;3.22;0.75;;;;;;;16.53;62.15;101617.03;7350893;19;21169;-51
2022/07/26 07:51:13;;;;;;;3.03;0.75;;;;;;;16.78;61.73;101621.22;7350888;19;20216;-56
2022/07/26 07:54:03;;;;;;;3.45;0.70;;;;;;;16.95;61.85;101618.81;7350215;19;20093;-57
2022/07/26 07:56:55;;;;;;;5.43;0.70;;;;;;;17.11;61.21;101618.72;7351831;19;20617;-52
2022/07/26 07:59:42;;;;;;;4.70;1.27;;;;;;;17.20;61.16;101622.13;7349367;19;20014;-52
2022/07/26 08:02:30;;;;;;;2.25;0.70;;;;;;;17.33;60.33;101626.41;7350433;19;20464;-53
2022/07/26 08:05:18;;;;;;;3.80;0.60;;;;;;;17.49;60.26;101617.91;7350798;19;20464;-55
2022/07/26 08:08:08;;;;;;;5.60;1.38;;;;;;;17.57;60.21;101620.50;7351471;19;20041;-55
2022/07/26 08:14:47;;;;;;;2.90;0.52;;;;;;;17.93;59.17;101626.72;7402968;19;20070;-52
2022/07/26 08:17:35;;;;;;;1.38;0.60;;;;;;;17.91;58.86;101626.31;7399931;19;20006;-53
2022/07/26 08:28:10;;;;;;;2.72;0.77;;;;;;;18.59;57.61;101621.44;7399753;19;20010;-49
2022/07/26 08:35:18;;;;;;;3.05;0.70;;;;;;;19.46;56.78;101631.41;7401058;19;20010;-50
2022/07/26 08:38:42;;;;;;;5.50;0.95;;;;;;;19.70;54.37;101633.69;7397704;19;20066;-52
2022/07/26 08:41:30;;;;;;;2.20;0.70;;;;;;;19.78;55.11;101626.94;7400220;19;20006;-53
2022/07/26 08:44:18;;;;;;;2.10;0.52;;;;;;;19.64;53.78;101629.63;7400334;19;20460;-48
2022/07/26 08:57:20;;;;;;;4.22;0.60;;;;;;;19.15;52.78;101631.81;7398174;19;20030;-52
2022/07/26 09:03:30;;;;;;;3.88;0.50;;;;;;;19.28;51.76;101633.16;7399851;19;20007;-50
2022/07/26 09:06:11;;;;;;;1.00;0.50;;;;;;;19.05;49.86;101632.50;7399293;19;20491;-51
2022/07/26 09:08:38;;;;;;;1.40;0.50;;;;;;;18.94;50.99;101626.75;7397835;19;20021;-50
2022/07/26 09:11:25;;;;;;;2.03;0.75;;;;;;;18.81;49.79;101631.78;7397240;19;20052;-48
2022/07/26 09:13:55;;;;;;;0.90;0.40;;;;;;;18.70;50.56;101633.63;7396627;19;20014;-48
2022/07/26 09:16:23;;;;;;;2.05;0.45;;;;;;;18.56;51.16;101632.63;7399125;19;20364;-49
2022/07/26 09:18:51;;;;;;;1.58;0.40;;;;;;;18.42;51.10;101621.97;7398059;19;20017;-48
2022/07/26 09:32:15;;;;;;;4.88;0.73;;;;;;;18.56;48.82;101627.00;7393374;19;20006;-52
2022/07/26 09:35:12;;;;;;;3.40;0.50;;;;;;;18.62;48.79;101625.47;7383776;19;20015;-49
2022/07/26 09:48:40;;;;;;;3.25;1.55;;;;;;;18.41;50.08;101645.56;7395647;19;20003;-51
2022/07/26 09:51:40;;;;;;;2.35;0.65;;;;;;;18.41;49.01;101641.94;7397108;19;20476;-51
2022/07/26 09:58:19;;;;;;;1.67;0.50;;;;;;;18.42;49.20;101649.19;7396351;19;20361;-52
2022/07/26 10:00:47;;;;;;;1.05;0.38;;;;;;;18.30;49.70;101647.38;7394688;19;20010;-51
2022/07/26 10:03:35;;;;;;;2.15;0.30;;;;;;;18.07;49.24;101643.78;7398426;19;20030;-51
2022/07/26 10:06:22;;;;;;;2.80;0.50;;;;;;;18.05;49.48;101649.78;7394988;19;20011;-49
2022/07/26 10:12:42;;;;;;;1.67;0.20;;;;;;;18.13;49.20;101653.53;7392294;19;20528;-55
2022/07/26 10:15:36;;;;;;;2.63;0.63;;;;;;;18.17;48.36;101654.38;7397849;19;20007;-53
2022/07/26 10:22:32;;;;;;;1.40;0.47;;;;;;;18.43;48.52;101651.59;7397084;19;20010;-55
2022/07/26 10:29:11;;;;;;;2.67;0.30;;;;;;;18.68;47.39;101644.41;7395273;19;20476;-52
2022/07/26 10:35:33;;;;;;;0.40;0.20;;;;;;;18.89;47.20;101652.31;7396593;19;20356;-55
2022/07/26 10:49:06;;;;;;;2.63;0.57;;;;;;;19.58;44.79;101656.44;7394416;19;20021;-57
2022/07/26 10:55:24;;;;;;;1.63;0.60;;;;;;;20.22;44.68;101651.44;7394309;19;20019;-54
2022/07/26 10:57:52;;;;;;;1.45;0.40;;;;;;;20.25;44.24;101645.06;7401326;19;20050;-54
2022/07/26 11:00:26;;;;;;;0.40;0.25;;;;;;;20.18;42.57;101656.22;7402387;19;20365;-54
2022/07/26 11:06:50;;;;;;;0.68;0.20;;;;;;;19.92;43.18;101649.56;7400793;19;20015;-46
2022/07/26 11:20:10;;;;;;;1.88;0.45;;;;;;;19.86;43.88;101662.34;7401571;19;20013;-51
2022/07/26 11:22:37;;;;;;;2.15;1.00;;;;;;;19.84;43.46;101664.75;7400998;19;20014;-54
2022/07/26 11:25:05;;;;;;;2.95;0.50;;;;;;;19.75;43.04;101666.25;7401803;19;20047;-55
2022/07/26 11:27:32;;;;;;;1.27;0.30;;;;;;;19.66;43.41;101658.13;7399277;19;20039;-53
2022/07/26 11:30:04;;;;;;;4.13;0.60;;;;;;;19.68;43.15;101663.34;7398610;19;20042;-54
2022/07/26 11:44:15;;;;;;;1.92;0.75;;;;;;;20.74;41.46;101650.25;7403897;19;20077;-54
2022/07/26 11:47:14;;;;;;;1.95;0.90;;;;;;;21.04;41.41;101660.09;7401652;19;20029;-54
2022/07/26 11:49:47;;;;;;;1.88;0.25;;;;;;;21.09;41.71;101665.38;7397758;19;20010;-54
2022/07/26 11:56:19;;;;;;;3.30;0.32;;;;;;;20.88;40.24;101653.97;7386838;19;20026;-55
2022/07/26 12:03:08;;;;;;;1.42;1.33;;;;;;;20.95;39.53;101664.44;7386927;19;20014;-54
2022/07/26 12:05:35;;;;;;;3.22;2.40;;;;;;;20.83;41.17;101668.41;7395364;19;20371;-53
2022/07/26 12:08:05;;;;;;;2.80;0.40;;;;;;;20.73;41.30;101665.53;7402576;19;20010;-52
2022/07/26 12:10:33;;;;;;;1.17;0.55;;;;;;;20.73;41.43;101671.94;7399308;19;20094;-54
2022/07/26 12:32:17;;;;;;;3.33;0.68;;;;;;;20.68;41.29;101674.34;7398375;19;20010;-55
2022/07/26 12:38:39;;;;;;;1.42;0.60;;;;;;;20.81;40.49;101667.19;7401946;19;20006;-56
2022/07/26 12:45:16;;;;;;;0.98;0.40;;;;;;;20.88;41.89;101662.41;7397136;19;20030;-55
2022/07/26 13:09:38;;;;;;;1.98;0.45;;;;;;;22.17;39.89;101652.00;7398432;19;20014;-61
2022/07/26 13:22:36;;;;;;;0.57;0.45;;;;;;;21.62;39.53;101645.84;7397323;19;20006;-55
2022/07/26 13:25:07;;;;;;;2.00;0.40;;;;;;;21.54;39.25;101649.03;7399419;19;20022;-55
2022/07/26 13:27:35;;;;;;;1.73;1.15;;;;;;;21.50;39.15;101651.06;7397799;19;20014;-54
2022/07/26 13:33:43;;;;;;;0.82;0.50;;;;;;;21.61;40.11;101638.59;7398007;19;20015;-50
2022/07/26 13:39:34;;;;;;;7.75;1.55;;;;;;;21.79;39.12;101655.53;7398573;19;20011;-53
2022/07/26 13:42:21;;;;;;;0.98;0.40;;;;;;;21.80;39.31;101655.16;7398992;19;20353;-54
2022/07/26 13:45:10;;;;;;;1.98;0.50;;;;;;;21.87;39.08;101651.56;7400032;19;20010;-56
2022/07/26 13:47:58;;;;;;;0.75;0.30;;;;;;;21.93;39.38;101657.59;7399300;19;20062;-55
2022/07/26 13:50:46;;;;;;;2.40;0.20;;;;;;;22.03;39.84;101654.78;7400694;19;20014;-55
2022/07/26 13:57:35;;;;;;;0.70;0.30;;;;;;;22.21;39.93;101647.16;7394283;19;20033;-53
2022/07/26 14:00:42;;;;;;;1.25;0.43;;;;;;;22.33;39.64;101651.59;7396825;19;20015;-55
2022/07/26 14:03:30;;;;;;;2.75;0.82;;;;;;;22.45;39.01;101642.72;7398136;19;20006;-56
2022/07/26 14:06:48;;;;;;;2.65;0.35;;;;;;;22.50;38.25;101642.31;7395211;19;20106;-54
2022/07/26 14:13:21;;;;;;;2.63;0.80;;;;;;;22.32;38.90;101645.13;7397098;19;20006;-56
2022/07/26 14:19:50;;;;;;;2.38;0.45;;;;;;;22.20;38.79;101647.56;7377194;19;20011;-55
2022/07/26 14:26:20;;;;;;;2.92;0.30;;;;;;;22.22;38.38;101654.41;7379791;19;20002;-54
2022/07/26 14:40:07;;;;;;;1.05;0.38;;;;;;;22.71;38.12;101649.97;7405186;19;20030;-55
2022/07/26 14:42:51;;;;;;;3.53;0.50;;;;;;;22.55;38.02;101658.03;7405769;19;20010;-56
2022/07/26 14:45:18;;;;;;;0.60;0.50;;;;;;;22.53;38.09;101652.00;7402689;19;20014;-55
2022/07/26 14:47:46;;;;;;;2.38;0.50;;;;;;;22.61;38.00;101653.59;7404790;19;20352;-57
2022/07/26 14:50:14;;;;;;;0.68;0.28;;;;;;;22.74;37.29;101649.16;7401900;19;20491;-55
2022/07/26 14:52:46;;;;;;;1.65;0.20;;;;;;;22.73;37.29;101647.53;7401847;19;20018;-55
2022/07/26 15:09:28;;;;;;;1.15;0.10;;;;;;;23.29;35.05;101655.84;7400221;19;20011;-54
2022/07/26 15:11:55;;;;;;;3.08;0.68;;;;;;;23.11;37.28;101649.47;7404858;19;20007;-55
2022/07/26 15:14:44;;;;;;;2.80;0.30;;;;;;;22.87;37.18;101650.34;7399787;19;20371;-57
2022/07/26 15:17:33;;;;;;;1.40;0.25;;;;;;;22.55;37.21;101658.03;7404118;19;20010;-55
2022/07/26 15:20:23;;;;;;;1.17;0.32;;;;;;;22.37;37.37;101658.06;7403975;19;20529;-55
2022/07/26 15:23:12;;;;;;;2.00;0.60;;;;;;;22.31;37.88;101654.03;7403716;19;20007;-55
2022/07/26 15:30:06;;;;;;;0.88;0.38;;;;;;;22.00;38.29;101660.44;7402393;19;20002;-55
2022/07/26 15:39:53;;;;;;;0.80;0.20;;;;;;;22.25;37.86;101652.81;7398703;19;20467;-56
2022/07/26 15:42:21;;;;;;;3.47;2.47;;;;;;;22.27;38.01;101642.72;7401224;19;20053;-54
2022/07/26 15:48:59;;;;;;;1.48;0.30;;;;;;;22.44;36.85;101639.09;7398027;19;20006;-56
2022/07/26 15:58:28;;;;;;;0.63;0.32;;;;;;;22.41;36.91;101627.81;7397642;19;20011;-57
2022/07/26 16:00:59;;;;;;;;;;;;;;;22.19;37.40;101632.66;7399810;19;20052;-57
2022/07/26 16:03:27;;;;;;;2.47;0.60;;;;;;;22.11;37.41;101633.84;7402091;19;19915;-57
2022/07/26 16:13:24;;;;;;;1.33;0.60;;;;;;;21.41;38.13;101639.34;7399762;19;20405;-53
2022/07/26 16:16:13;;;;;;;1.23;0.38;;;;;;;21.29;38.23;101634.06;7397071;19;20011;-52
2022/07/26 16:19:01;;;;;;;2.22;0.95;;;;;;;21.26;38.72;101634.88;7401523;19;20464;-52
2022/07/26 16:21:49;;;;;;;1.23;0.50;;;;;;;21.10;38.49;101641.63;7395827;19;20033;-48
2022/07/26 16:31:47;;;;;;;3.33;2.05;;;;;;;21.31;39.62;101645.75;7399732;19;20017;-51
2022/07/26 16:38:41;;;;;;;1.35;1.05;;;;;;;21.27;40.49;101645.72;7384867;19;20006;-53
2022/07/26 16:41:30;;;;;;;0.68;0.60;;;;;;;21.28;39.81;101640.91;7379579;19;20029;-54
2022/07/26 16:44:43;;;;;;;1.23;0.80;;;;;;;21.39;39.53;101636.13;7376317;19;20011;-53
2022/07/26 16:51:12;;;;;;;0.65;0.30;;;;;;;21.70;39.45;101619.28;7400602;19;20006;-49
2022/07/26 16:54:00;;;;;;;1.35;0.32;;;;;;;21.74;39.08;101614.47;7401632;19;20003;-52
2022/07/26 16:56:48;;;;;;;3.15;0.60;;;;;;;21.84;39.13;101612.88;7400360;19;20082;-54
2022/07/26 17:18:02;;;;;;;2.53;0.47;;;;;;;21.61;40.34;101599.13;7398969;19;20535;-55
2022/07/26 17:27:34;;;;;;;2.40;0.82;;;;;;;21.61;39.07;101593.50;7396159;19;20014;-53
2022/07/26 17:30:22;;;;;;;1.58;1.10;;;;;;;21.72;39.84;101596.34;7398309;19;20011;-49
2022/07/26 17:33:09;;;;;;;1.25;0.80;;;;;;;21.66;39.42;101595.09;7399518;19;20353;-53
2022/07/26 17:35:57;;;;;;;2.75;0.30;;;;;;;21.72;39.57;101593.50;7396731;19;20034;-52
2022/07/26 17:38:52;;;;;;;0.40;0.30;;;;;;;21.70;38.76;101585.47;7397487;19;20381;-49
2022/07/26 17:45:31;;;;;;;1.27;1.17;;;;;;;21.95;38.46;101577.03;7396806;19;20011;-50
2022/07/26 17:48:19;;;;;;;0.65;0.50;;;;;;;22.12;38.46;101579.06;7394889;19;20003;-54
2022/07/26 17:55:14;;;;;;;0.45;0.45;;;;;;;22.37;38.44;101579.03;7393992;19;20344;-52
2022/07/26 18:01:38;;;;;;;2.03;0.35;;;;;;;22.89;37.49;101582.97;7393426;19;20121;-51
2022/07/26 18:18:20;;;;;;;5.30;2.20;;;;;;;21.72;38.52;101582.25;7404597;19;20023;-54
2022/07/26 18:21:08;;;;;;;1.40;1.30;;;;;;;21.53;38.67;101588.25;7404571;19;20388;-56
2022/07/26 18:24:05;;;;;;;2.65;1.35;;;;;;;21.40;38.83;101587.00;7402732;19;20018;-55
2022/07/26 18:26:43;;;;;;;3.55;1.80;;;;;;;21.35;39.08;101578.94;7400999;19;20078;-55
2022/07/26 18:33:16;;;;;;;3.50;1.05;;;;;;;21.28;39.23;101581.75;7400678;19;20489;-51
2022/07/26 18:43:09;;;;;;;2.33;0.45;;;;;;;20.71;41.68;101589.09;7396099;19;20014;-52
2022/07/26 18:49:02;;;;;;;9.20;1.80;;;;;;;20.39;43.00;101589.72;7396818;19;20011;-52
2022/07/26 18:55:19;;;;;;;3.15;0.50;;;;;;;20.26;43.79;101596.06;7400651;19;20022;-46
2022/07/26 18:57:47;;;;;;;4.63;1.95;;;;;;;20.19;43.92;101593.16;7395994;19;20048;-50
2022/07/26 19:04:18;;;;;;;4.97;2.65;;;;;;;19.98;45.23;101589.00;7376789;19;20015;-53
2022/07/26 19:06:48;;;;;;;1.00;0.30;;;;;;;19.98;44.56;101579.75;7381162;19;20369;-47
2022/07/26 19:09:16;;;;;;;0.80;0.50;;;;;;;19.90;45.29;101589.31;7398783;19;20018;-47
2022/07/26 19:11:46;;;;;;;2.20;0.40;;;;;;;19.80;45.60;101579.59;7400779;19;20014;-45
2022/07/26 19:14:14;;;;;;;1.60;0.40;;;;;;;19.75;45.64;101590.41;7400708;19;20473;-48
2022/07/26 19:16:41;;;;;;;1.13;0.40;;;;;;;19.71;45.96;101576.31;7396004;19;20029;-47